Time;durP1;ratioP1;P1;durP2;ratioP2;P2;SDS_P1;SDS_P2;PMS_P1;PMS_P2;Temp;Humidity;BMP_temperature;BMP_pressure;BME280_temperature;BME280_humidity;BME280_pressure;Samples;Min_cycle;Max_cycle;Signal;HPM_P1;HPM_P2
2023/02/28 00:00:49;;;;;;;5.18;3.17;;;;;;;;;;5051697;28;20085;-76
2023/02/28 00:03:15;;;;;;;4.50;2.90;;;;;;;;;;5036416;28;20064;-76
2023/02/28 00:05:41;;;;;;;5.20;3.25;;;;;;;;;;5054900;28;20025;-77
2023/02/28 00:08:07;;;;;;;6.00;3.10;;;;;;;;;;5035932;28;20035;-76
2023/02/28 00:10:33;;;;;;;6.15;2.92;;;;;;;;;;5053656;28;20230;-77
2023/02/28 00:13:04;;;;;;;6.60;3.20;;;;;;;;;;5034086;28;20055;-76
2023/02/28 00:15:31;;;;;;;4.63;2.72;;;;;;;;;;5055342;28;20017;-76
2023/02/28 00:17:56;;;;;;;5.05;2.90;;;;;;;;;;5036840;28;20037;-77
2023/02/28 00:20:22;;;;;;;5.35;2.92;;;;;;;;;;5053646;28;20464;-76
2023/02/28 00:22:50;;;;;;;5.10;2.63;;;;;;;;;;5038570;28;20034;-76
2023/02/28 00:25:19;;;;;;;4.82;2.80;;;;;;;;;;5037999;28;20092;-76
2023/02/28 00:27:45;;;;;;;5.88;2.80;;;;;;;;;;5040150;28;20028;-77
2023/02/28 00:30:13;;;;;;;6.00;3.13;;;;;;;;;;5039535;28;20637;-76
2023/02/28 00:32:39;;;;;;;4.10;2.55;;;;;;;;;;5036077;28;20021;-76
2023/02/28 00:35:05;;;;;;;4.20;2.60;;;;;;;;;;5059907;28;20024;-77
2023/02/28 00:37:30;;;;;;;4.90;2.80;;;;;;;;;;5060202;28;20033;-75
2023/02/28 00:39:56;;;;;;;5.18;2.75;;;;;;;;;;5044028;28;20037;-76
2023/02/28 00:42:21;;;;;;;5.78;2.70;;;;;;;;;;5054263;28;20088;-75
2023/02/28 00:44:47;;;;;;;4.38;2.65;;;;;;;;;;5046810;28;20040;-75
2023/02/28 00:47:12;;;;;;;5.15;2.80;;;;;;;;;;5034735;28;20021;-75
2023/02/28 00:49:38;;;;;;;5.15;2.72;;;;;;;;;;5051373;28;20028;-76
2023/02/28 00:52:03;;;;;;;4.15;2.22;;;;;;;;;;5044830;28;20037;-76
2023/02/28 00:54:29;;;;;;;6.25;2.97;;;;;;;;;;5061760;28;20025;-76
2023/02/28 00:56:54;;;;;;;5.68;2.90;;;;;;;;;;5043551;28;20059;-76
2023/02/28 00:59:20;;;;;;;4.75;2.70;;;;;;;;;;5055689;28;20110;-77
2023/02/28 01:01:46;;;;;;;4.88;2.67;;;;;;;;;;5041783;28;21302;-76
2023/02/28 01:04:12;;;;;;;5.88;2.92;;;;;;;;;;5056069;28;20037;-76
2023/02/28 01:06:41;;;;;;;4.82;2.85;;;;;;;;;;5039860;28;20052;-76
2023/02/28 01:09:07;;;;;;;7.13;3.00;;;;;;;;;;5051511;28;20112;-75
2023/02/28 01:11:33;;;;;;;5.75;2.92;;;;;;;;;;5058131;28;20029;-75
2023/02/28 01:13:59;;;;;;;5.03;2.63;;;;;;;;;;5042561;28;20135;-75
2023/02/28 01:16:25;;;;;;;4.90;2.70;;;;;;;;;;5038840;28;20037;-76
2023/02/28 01:18:51;;;;;;;4.80;2.70;;;;;;;;;;5057618;28;20037;-76
2023/02/28 01:21:18;;;;;;;5.13;2.85;;;;;;;;;;5059718;28;20054;-76
2023/02/28 01:23:44;;;;;;;4.72;2.65;;;;;;;;;;5063143;28;20377;-76
2023/02/28 01:26:14;;;;;;;5.80;2.80;;;;;;;;;;5036837;28;20116;-76
2023/02/28 01:28:40;;;;;;;4.40;2.65;;;;;;;;;;5041611;28;20056;-76
2023/02/28 01:31:06;;;;;;;5.45;2.53;;;;;;;;;;5054109;28;20056;-77
2023/02/28 01:33:32;;;;;;;5.13;2.70;;;;;;;;;;5056154;28;20412;-76
2023/02/28 01:36:19;;;;;;;5.72;3.35;;;;;;;;;;5044199;28;20021;-77
2023/02/28 01:38:45;;;;;;;5.35;2.83;;;;;;;;;;5052193;28;20025;-76
2023/02/28 01:41:26;;;;;;;5.95;2.55;;;;;;;;;;5049571;28;20029;-77
2023/02/28 01:44:05;;;;;;;6.10;2.75;;;;;;;;;;5047124;28;20021;-76
2023/02/28 01:46:32;;;;;;;6.68;2.70;;;;;;;;;;5048135;28;20081;-76
2023/02/28 01:49:06;;;;;;;4.50;2.50;;;;;;;;;;5049825;28;20096;-75
2023/02/28 01:51:38;;;;;;;5.15;2.67;;;;;;;;;;5054700;28;20032;-76
2023/02/28 01:54:13;;;;;;;5.43;2.67;;;;;;;;;;5060591;28;20029;-76
2023/02/28 01:57:00;;;;;;;5.68;2.90;;;;;;;;;;5062267;28;20028;-75
2023/02/28 01:59:48;;;;;;;5.10;2.47;;;;;;;;;;5063892;28;20044;-77
2023/02/28 02:02:16;;;;;;;4.70;2.40;;;;;;;;;;5052267;28;20037;-76
2023/02/28 02:05:05;;;;;;;5.43;2.80;;;;;;;;;;5063609;28;20116;-75
2023/02/28 02:07:37;;;;;;;5.07;2.72;;;;;;;;;;5042183;28;20039;-76
2023/02/28 02:10:16;;;;;;;5.22;2.55;;;;;;;;;;5062455;28;20048;-76
2023/02/28 02:13:06;;;;;;;5.22;2.75;;;;;;;;;;5063615;28;20017;-76
2023/02/28 02:15:35;;;;;;;4.55;2.63;;;;;;;;;;5057893;28;20025;-76
2023/02/28 02:18:29;;;;;;;9.05;3.10;;;;;;;;;;5044809;28;20041;-76
2023/02/28 02:21:21;;;;;;;5.60;2.65;;;;;;;;;;5038834;28;21138;-77
2023/02/28 02:23:54;;;;;;;4.53;2.55;;;;;;;;;;5022394;28;20194;-75
2023/02/28 02:26:19;;;;;;;5.00;2.90;;;;;;;;;;5035536;28;20111;-77
2023/02/28 02:29:19;;;;;;;4.80;2.97;;;;;;;;;;5064058;28;20029;-76
2023/02/28 02:32:03;;;;;;;6.57;2.60;;;;;;;;;;5028422;28;20039;-76
2023/02/28 02:34:31;;;;;;;4.47;2.70;;;;;;;;;;5051646;28;20024;-75
2023/02/28 02:37:05;;;;;;;5.75;3.10;;;;;;;;;;5061209;28;20795;-77
2023/02/28 02:40:00;;;;;;;5.07;3.00;;;;;;;;;;5067534;28;20495;-75
2023/02/28 02:42:39;;;;;;;5.10;2.75;;;;;;;;;;5061197;28;20513;-76
2023/02/28 02:45:12;;;;;;;6.22;2.75;;;;;;;;;;5045167;28;20037;-76
2023/02/28 02:47:40;;;;;;;4.53;2.83;;;;;;;;;;5050406;28;20025;-76
2023/02/28 02:50:11;;;;;;;4.60;2.47;;;;;;;;;;5063459;28;20033;-75
2023/02/28 02:52:45;;;;;;;5.45;3.13;;;;;;;;;;5061725;28;20059;-76
2023/02/28 02:55:12;;;;;;;6.95;2.95;;;;;;;;;;5060122;28;20021;-76
2023/02/28 02:57:50;;;;;;;6.47;2.90;;;;;;;;;;5062992;28;20435;-75
2023/02/28 03:00:20;;;;;;;3.90;2.40;;;;;;;;;;5057340;28;20092;-76
2023/02/28 03:02:48;;;;;;;4.38;2.45;;;;;;;;;;5059753;28;20029;-76
2023/02/28 03:05:42;;;;;;;4.95;3.00;;;;;;;;;;5048743;28;20029;-76
2023/02/28 03:08:08;;;;;;;5.20;3.08;;;;;;;;;;5064388;28;20025;-76
2023/02/28 03:10:42;;;;;;;6.45;3.10;;;;;;;;;;5041553;28;20029;-76
2023/02/28 03:13:37;;;;;;;5.05;2.78;;;;;;;;;;5060721;28;20025;-76
2023/02/28 03:16:29;;;;;;;5.38;2.83;;;;;;;;;;5059608;28;20024;-76
2023/02/28 03:19:21;;;;;;;4.20;2.67;;;;;;;;;;5058577;28;20128;-76
2023/02/28 03:22:11;;;;;;;5.32;2.60;;;;;;;;;;5034791;28;20049;-76
2023/02/28 03:25:12;;;;;;;5.03;2.97;;;;;;;;;;5062554;28;20032;-76
2023/02/28 03:27:42;;;;;;;5.57;2.85;;;;;;;;;;5059213;28;20096;-78
2023/02/28 03:30:11;;;;;;;4.90;2.58;;;;;;;;;;5045716;28;20029;-76
2023/02/28 03:32:55;;;;;;;6.65;3.28;;;;;;;;;;5039549;28;20059;-76
2023/02/28 03:35:23;;;;;;;5.35;2.78;;;;;;;;;;5055972;28;20020;-76
2023/02/28 03:37:56;;;;;;;5.53;3.13;;;;;;;;;;5042937;28;20041;-76
2023/02/28 03:40:24;;;;;;;;;;;;;;;;;;5066719;28;20032;-76
2023/02/28 03:42:55;;;;;;;6.28;3.00;;;;;;;;;;5042426;28;20307;-77
2023/02/28 03:45:25;;;;;;;6.65;3.13;;;;;;;;;;5044960;28;20083;-77
2023/02/28 03:48:17;;;;;;;7.65;3.20;;;;;;;;;;5062329;28;20017;-76
2023/02/28 03:50:46;;;;;;;6.43;3.13;;;;;;;;;;5057734;28;20044;-76
2023/02/28 03:53:36;;;;;;;6.32;3.25;;;;;;;;;;5057506;28;22199;-76
2023/02/28 03:56:16;;;;;;;5.75;3.25;;;;;;;;;;5054976;28;20025;-76
2023/02/28 03:59:30;;;;;;;6.20;3.25;;;;;;;;;;5055998;28;20050;-76
2023/02/28 04:01:58;;;;;;;5.15;3.22;;;;;;;;;;4973083;28;20027;-77
2023/02/28 04:04:24;;;;;;;6.10;3.33;;;;;;;;;;4958655;28;20034;-75
2023/02/28 04:06:50;;;;;;;6.43;3.60;;;;;;;;;;5017221;28;21592;-76
2023/02/28 04:09:16;;;;;;;7.78;3.22;;;;;;;;;;5052192;28;20131;-76
2023/02/28 04:11:48;;;;;;;6.57;3.42;;;;;;;;;;5032132;28;20612;-76
2023/02/28 04:14:14;;;;;;;7.13;3.42;;;;;;;;;;5059820;28;20527;-76
2023/02/28 04:16:41;;;;;;;6.70;3.17;;;;;;;;;;5061837;28;20021;-75
2023/02/28 04:19:08;;;;;;;6.25;3.47;;;;;;;;;;5046852;28;20092;-75
2023/02/28 04:21:39;;;;;;;5.38;3.47;;;;;;;;;;5043953;28;20028;-76
2023/02/28 04:24:05;;;;;;;6.35;3.78;;;;;;;;;;5054468;28;20017;-76
2023/02/28 04:26:36;;;;;;;5.82;3.47;;;;;;;;;;5059290;28;20492;-76
2023/02/28 04:29:03;;;;;;;5.88;3.53;;;;;;;;;;5044097;28;20039;-76
2023/02/28 04:31:28;;;;;;;5.22;3.30;;;;;;;;;;5028870;28;20036;-76
2023/02/28 04:33:54;;;;;;;6.50;3.40;;;;;;;;;;5060218;28;20033;-76
2023/02/28 04:36:19;;;;;;;5.85;3.42;;;;;;;;;;5060054;28;20079;-76
2023/02/28 04:38:45;;;;;;;6.10;3.38;;;;;;;;;;5044111;28;20488;-76
2023/02/28 04:41:12;;;;;;;6.63;3.75;;;;;;;;;;5059046;28;20044;-77
2023/02/28 04:43:38;;;;;;;5.43;3.30;;;;;;;;;;5039973;28;20033;-77
2023/02/28 04:46:04;;;;;;;6.53;3.42;;;;;;;;;;5055710;28;20028;-77
2023/02/28 04:48:32;;;;;;;5.03;2.65;;;;;;;;;;5039878;28;20043;-76
2023/02/28 04:51:02;;;;;;;5.70;3.17;;;;;;;;;;5054057;28;20066;-77
2023/02/28 04:53:29;;;;;;;6.53;3.40;;;;;;;;;;5056973;28;20020;-77
2023/02/28 04:55:54;;;;;;;7.80;3.40;;;;;;;;;;5041450;28;20385;-75
2023/02/28 04:58:22;;;;;;;6.35;3.00;;;;;;;;;;5055849;28;20017;-76
2023/02/28 05:00:48;;;;;;;4.97;3.33;;;;;;;;;;5058009;28;20028;-77
2023/02/28 05:03:13;;;;;;;5.53;3.13;;;;;;;;;;5059677;28;20481;-77
2023/02/28 05:05:39;;;;;;;4.88;2.90;;;;;;;;;;5039576;28;20120;-76
2023/02/28 05:08:05;;;;;;;5.45;2.90;;;;;;;;;;5061010;28;20020;-76
2023/02/28 05:10:30;;;;;;;6.03;3.17;;;;;;;;;;5037299;28;20040;-76
2023/02/28 05:12:56;;;;;;;5.45;2.75;;;;;;;;;;5060999;28;20024;-76
2023/02/28 05:15:21;;;;;;;4.80;2.67;;;;;;;;;;5053368;28;20511;-76
2023/02/28 05:17:47;;;;;;;5.35;2.58;;;;;;;;;;5040823;28;20029;-76
2023/02/28 05:20:13;;;;;;;6.10;2.92;;;;;;;;;;5038546;28;20029;-76
2023/02/28 05:22:39;;;;;;;4.88;2.78;;;;;;;;;;5044588;28;20033;-76
2023/02/28 05:25:05;;;;;;;7.15;3.10;;;;;;;;;;5034079;28;20043;-76
2023/02/28 05:27:31;;;;;;;5.28;3.10;;;;;;;;;;5041696;28;20028;-76
2023/02/28 05:29:56;;;;;;;6.32;3.08;;;;;;;;;;5054334;28;20033;-76
2023/02/28 05:32:22;;;;;;;4.82;3.00;;;;;;;;;;5052289;28;20123;-76
2023/02/28 05:34:47;;;;;;;5.68;2.80;;;;;;;;;;5057928;28;20027;-76
2023/02/28 05:37:15;;;;;;;6.53;3.20;;;;;;;;;;5051720;28;20035;-76
2023/02/28 05:39:41;;;;;;;6.22;3.17;;;;;;;;;;5052496;28;20033;-75
2023/02/28 05:42:07;;;;;;;5.50;2.80;;;;;;;;;;5036468;28;20044;-76
2023/02/28 05:44:32;;;;;;;5.93;3.17;;;;;;;;;;5040232;28;20032;-76
2023/02/28 05:46:57;;;;;;;5.90;2.78;;;;;;;;;;5040676;28;20087;-76
2023/02/28 05:49:23;;;;;;;5.93;3.10;;;;;;;;;;5055675;28;20132;-76
2023/02/28 05:51:48;;;;;;;4.82;3.05;;;;;;;;;;5043557;28;20052;-76
2023/02/28 05:54:14;;;;;;;6.18;2.70;;;;;;;;;;5041979;28;20036;-76
2023/02/28 05:56:40;;;;;;;5.63;2.67;;;;;;;;;;5037660;28;20052;-76
2023/02/28 05:59:06;;;;;;;4.57;2.83;;;;;;;;;;5054468;28;20032;-77
2023/02/28 06:01:38;;;;;;;5.10;2.80;;;;;;;;;;5054693;28;20025;-76
2023/02/28 06:04:05;;;;;;;4.78;2.60;;;;;;;;;;5058627;28;20024;-76
2023/02/28 06:06:31;;;;;;;4.28;2.53;;;;;;;;;;5051891;28;20040;-77
2023/02/28 06:08:57;;;;;;;6.35;2.70;;;;;;;;;;5062513;28;20032;-76
2023/02/28 06:11:26;;;;;;;5.28;2.40;;;;;;;;;;5052658;28;20044;-76
2023/02/28 06:13:56;;;;;;;4.75;2.70;;;;;;;;;;5043436;28;20071;-77
2023/02/28 06:16:22;;;;;;;4.15;2.50;;;;;;;;;;5056486;28;20031;-76
2023/02/28 06:18:47;;;;;;;4.18;2.25;;;;;;;;;;5052720;28;20374;-77
2023/02/28 06:21:13;;;;;;;3.70;2.10;;;;;;;;;;5036613;28;20043;-77
2023/02/28 06:23:38;;;;;;;4.30;2.10;;;;;;;;;;5058918;28;20050;-76
2023/02/28 06:26:04;;;;;;;5.47;2.10;;;;;;;;;;5041191;28;20043;-76
2023/02/28 06:28:30;;;;;;;4.95;2.30;;;;;;;;;;5059163;28;20024;-76
2023/02/28 06:30:55;;;;;;;4.00;2.13;;;;;;;;;;5058897;28;20021;-77
2023/02/28 06:33:21;;;;;;;4.28;2.10;;;;;;;;;;5057689;28;21073;-75
2023/02/28 06:35:49;;;;;;;3.10;1.58;;;;;;;;;;5056901;28;20473;-76
2023/02/28 06:38:15;;;;;;;2.60;1.60;;;;;;;;;;5042635;28;20055;-77
2023/02/28 06:40:40;;;;;;;4.43;2.08;;;;;;;;;;5058600;28;20021;-76
2023/02/28 06:43:06;;;;;;;3.50;1.90;;;;;;;;;;5039551;28;20054;-76
2023/02/28 06:45:32;;;;;;;3.85;1.90;;;;;;;;;;5039810;28;20092;-76
2023/02/28 06:47:57;;;;;;;4.15;1.95;;;;;;;;;;5059615;28;20164;-76
2023/02/28 06:50:23;;;;;;;3.88;1.80;;;;;;;;;;5044454;28;20029;-76
2023/02/28 06:52:53;;;;;;;5.10;1.98;;;;;;;;;;5043611;28;20037;-76
2023/02/28 06:55:19;;;;;;;3.28;1.92;;;;;;;;;;5052563;28;20033;-77
2023/02/28 06:57:44;;;;;;;2.85;1.60;;;;;;;;;;5058477;28;20107;-76
2023/02/28 07:00:10;;;;;;;3.80;1.83;;;;;;;;;;5050538;28;20044;-77
2023/02/28 07:02:37;;;;;;;3.22;1.90;;;;;;;;;;5023299;28;20089;-78
2023/02/28 07:05:03;;;;;;;3.40;1.85;;;;;;;;;;5040067;28;20036;-78
2023/02/28 07:07:28;;;;;;;3.22;1.75;;;;;;;;;;5048330;28;20480;-77
2023/02/28 07:09:54;;;;;;;4.00;1.90;;;;;;;;;;5032781;28;20036;-78
2023/02/28 07:12:19;;;;;;;4.30;1.88;;;;;;;;;;5046608;28;20017;-78
2023/02/28 07:14:44;;;;;;;3.90;2.13;;;;;;;;;;5046439;28;20156;-78
2023/02/28 07:17:11;;;;;;;3.22;2.00;;;;;;;;;;5051384;28;20025;-78
2023/02/28 07:19:38;;;;;;;3.20;1.80;;;;;;;;;;5046280;28;20143;-78
2023/02/28 07:22:04;;;;;;;5.72;2.15;;;;;;;;;;5049777;28;20029;-78
2023/02/28 07:24:29;;;;;;;4.43;1.88;;;;;;;;;;5050571;28;20021;-78
2023/02/28 07:26:55;;;;;;;3.25;1.67;;;;;;;;;;5031446;28;21808;-78
2023/02/28 07:29:21;;;;;;;4.55;2.13;;;;;;;;;;5050110;28;20040;-78
2023/02/28 07:31:47;;;;;;;4.05;1.95;;;;;;;;;;5042923;28;20033;-78
2023/02/28 07:34:13;;;;;;;3.60;1.77;;;;;;;;;;5028201;28;20033;-78
2023/02/28 07:36:39;;;;;;;3.53;1.90;;;;;;;;;;5051642;28;20048;-78
2023/02/28 07:39:04;;;;;;;4.10;2.00;;;;;;;;;;5031501;28;20113;-78
2023/02/28 07:41:33;;;;;;;3.97;2.13;;;;;;;;;;5031624;28;20029;-78
2023/02/28 07:43:59;;;;;;;3.35;2.00;;;;;;;;;;5043555;28;20408;-78
2023/02/28 07:46:25;;;;;;;3.83;2.10;;;;;;;;;;5031521;28;20028;-78
2023/02/28 07:48:51;;;;;;;4.38;1.90;;;;;;;;;;5043260;28;21903;-78
2023/02/28 07:51:16;;;;;;;3.33;1.80;;;;;;;;;;5045597;28;20111;-78
2023/02/28 07:53:42;;;;;;;4.25;1.90;;;;;;;;;;5047800;28;20052;-78
2023/02/28 07:56:07;;;;;;;3.65;1.90;;;;;;;;;;5031353;28;20028;-78
2023/02/28 07:58:33;;;;;;;3.30;1.73;;;;;;;;;;5037837;28;20036;-78
2023/02/28 08:01:06;;;;;;;2.63;1.70;;;;;;;;;;5040741;28;20028;-78
2023/02/28 08:03:31;;;;;;;3.83;2.13;;;;;;;;;;5027835;28;20033;-78
2023/02/28 08:05:57;;;;;;;4.05;2.13;;;;;;;;;;5026514;28;20036;-78
2023/02/28 08:08:23;;;;;;;3.35;1.98;;;;;;;;;;5046509;28;20026;-78
2023/02/28 08:10:48;;;;;;;4.93;2.50;;;;;;;;;;5045021;28;20412;-78
2023/02/28 08:13:14;;;;;;;4.25;2.10;;;;;;;;;;5032597;28;20029;-78
2023/02/28 08:15:42;;;;;;;5.03;2.30;;;;;;;;;;5043082;28;20025;-78
2023/02/28 08:18:08;;;;;;;3.75;1.98;;;;;;;;;;5025767;28;20021;-78
2023/02/28 08:20:33;;;;;;;3.10;1.90;;;;;;;;;;5048437;28;21261;-77
2023/02/28 08:22:58;;;;;;;3.53;1.90;;;;;;;;;;5026444;28;20041;-77
2023/02/28 08:25:24;;;;;;;3.63;2.05;;;;;;;;;;5025422;28;20041;-78
2023/02/28 08:27:51;;;;;;;3.25;1.60;;;;;;;;;;5035607;28;20393;-78
2023/02/28 08:30:17;;;;;;;3.10;1.80;;;;;;;;;;5042453;28;20084;-78
2023/02/28 08:32:42;;;;;;;2.38;1.50;;;;;;;;;;5034672;28;20532;-78
2023/02/28 08:35:11;;;;;;;2.92;1.50;;;;;;;;;;5034303;28;20370;-78
2023/02/28 08:37:37;;;;;;;2.97;1.63;;;;;;;;;;5033793;28;20041;-78
2023/02/28 08:40:03;;;;;;;2.88;1.75;;;;;;;;;;5029680;28;20033;-77
2023/02/28 08:42:29;;;;;;;3.47;1.95;;;;;;;;;;5029054;28;20028;-77
2023/02/28 08:44:55;;;;;;;5.00;2.13;;;;;;;;;;5047048;28;20043;-77
2023/02/28 08:47:20;;;;;;;3.15;1.75;;;;;;;;;;5049184;28;20056;-77
2023/02/28 08:49:46;;;;;;;3.03;1.83;;;;;;;;;;5047665;28;20392;-77
2023/02/28 08:52:11;;;;;;;3.75;2.03;;;;;;;;;;5029327;28;20079;-78
2023/02/28 08:54:37;;;;;;;3.90;2.00;;;;;;;;;;5032844;28;20124;-77
2023/02/28 08:57:03;;;;;;;3.92;1.88;;;;;;;;;;5048892;28;20021;-78
2023/02/28 08:59:29;;;;;;;3.63;1.83;;;;;;;;;;5033905;28;20032;-78
2023/02/28 09:01:54;;;;;;;3.13;1.98;;;;;;;;;;5032161;28;20135;-78
2023/02/28 09:04:19;;;;;;;4.13;1.90;;;;;;;;;;5045729;28;20025;-77
2023/02/28 09:06:45;;;;;;;4.13;1.95;;;;;;;;;;5030154;28;20029;-78
2023/02/28 09:09:10;;;;;;;5.13;2.05;;;;;;;;;;5049024;28;21597;-78
2023/02/28 09:11:37;;;;;;;4.45;1.77;;;;;;;;;;5038057;28;20078;-77
2023/02/28 09:14:03;;;;;;;3.03;1.73;;;;;;;;;;5024924;28;20106;-77
2023/02/28 09:16:30;;;;;;;4.03;1.92;;;;;;;;;;5031161;28;20547;-77
2023/02/28 09:18:55;;;;;;;3.22;1.80;;;;;;;;;;5027419;28;20028;-78
2023/02/28 09:21:21;;;;;;;4.32;1.92;;;;;;;;;;5042297;28;20565;-78
2023/02/28 09:23:48;;;;;;;3.25;1.70;;;;;;;;;;5047871;28;20029;-77
2023/02/28 09:26:20;;;;;;;3.47;1.70;;;;;;;;;;5027972;28;20018;-77
2023/02/28 09:28:46;;;;;;;4.05;2.03;;;;;;;;;;5033717;28;20123;-77
2023/02/28 09:31:20;;;;;;;3.63;1.95;;;;;;;;;;5030240;28;20032;-78
2023/02/28 09:33:46;;;;;;;4.13;2.05;;;;;;;;;;5031635;28;20115;-78
2023/02/28 09:36:12;;;;;;;4.38;1.85;;;;;;;;;;5046780;28;20036;-77
2023/02/28 09:38:37;;;;;;;3.50;2.00;;;;;;;;;;5034326;28;20017;-77
2023/02/28 09:41:13;;;;;;;4.65;1.73;;;;;;;;;;5047337;28;20043;-78
2023/02/28 09:43:45;;;;;;;4.20;1.70;;;;;;;;;;5045686;28;20021;-78
2023/02/28 09:46:33;;;;;;;3.97;1.67;;;;;;;;;;5043067;28;20028;-78
2023/02/28 09:49:04;;;;;;;2.38;1.33;;;;;;;;;;5044154;28;20085;-78
2023/02/28 09:51:45;;;;;;;2.67;1.52;;;;;;;;;;5045949;28;20029;-78
2023/02/28 09:54:18;;;;;;;3.10;1.67;;;;;;;;;;5029602;28;20026;-78
2023/02/28 09:56:52;;;;;;;3.10;1.60;;;;;;;;;;5040449;28;20111;-78
2023/02/28 09:59:39;;;;;;;3.63;1.77;;;;;;;;;;5045412;28;20532;-77
2023/02/28 10:02:38;;;;;;;3.40;1.77;;;;;;;;;;5041976;28;20489;-78
2023/02/28 10:05:15;;;;;;;1.67;1.20;;;;;;;;;;5047706;28;20082;-78
2023/02/28 10:07:49;;;;;;;2.28;1.42;;;;;;;;;;5053076;28;20477;-78
2023/02/28 10:10:24;;;;;;;2.42;1.40;;;;;;;;;;5030477;28;20036;-77
2023/02/28 10:12:53;;;;;;;2.40;1.35;;;;;;;;;;5052497;28;20112;-78
2023/02/28 10:15:23;;;;;;;2.63;1.42;;;;;;;;;;5053152;28;20040;-77
2023/02/28 10:17:53;;;;;;;2.50;1.40;;;;;;;;;;5032150;28;20028;-78
2023/02/28 10:20:21;;;;;;;2.83;1.63;;;;;;;;;;5034646;28;20073;-78
2023/02/28 10:23:25;;;;;;;3.28;1.50;;;;;;;;;;5050986;28;20028;-78
2023/02/28 10:26:01;;;;;;;;;;;;;;;;;;5047583;28;20396;-78
2023/02/28 10:28:32;;;;;;;3.10;1.40;;;;;;;;;;5033186;28;19921;-77
2023/02/28 10:30:58;;;;;;;2.35;1.20;;;;;;;;;;5037024;28;20086;-77
2023/02/28 10:33:31;;;;;;;2.10;1.27;;;;;;;;;;5047386;28;20040;-77
2023/02/28 10:35:57;;;;;;;2.38;1.30;;;;;;;;;;5052076;28;20474;-78
2023/02/28 10:38:28;;;;;;;2.72;1.30;;;;;;;;;;5052437;28;20029;-78
2023/02/28 10:41:08;;;;;;;1.83;1.20;;;;;;;;;;5030805;28;20393;-78
2023/02/28 10:43:34;;;;;;;2.42;1.30;;;;;;;;;;5029344;28;20032;-78
2023/02/28 10:46:14;;;;;;;3.17;1.50;;;;;;;;;;5039491;28;20126;-78
2023/02/28 10:49:11;;;;;;;2.60;1.40;;;;;;;;;;5034455;28;20473;-78
2023/02/28 10:51:39;;;;;;;2.97;1.20;;;;;;;;;;5042651;28;20033;-78
2023/02/28 10:54:05;;;;;;;2.22;1.40;;;;;;;;;;5047137;28;20476;-78
2023/02/28 10:56:32;;;;;;;2.90;1.50;;;;;;;;;;5050961;28;20021;-77
2023/02/28 10:59:27;;;;;;;3.58;1.58;;;;;;;;;;5052471;28;20515;-77
2023/02/28 11:01:53;;;;;;;2.38;1.40;;;;;;;;;;5033124;28;20040;-78
2023/02/28 11:04:29;;;;;;;4.28;1.70;;;;;;;;;;5048378;28;20025;-78
2023/02/28 11:07:05;;;;;;;2.47;1.42;;;;;;;;;;5032256;28;20543;-78
2023/02/28 11:09:36;;;;;;;2.35;1.40;;;;;;;;;;5040320;28;20127;-78
2023/02/28 11:12:04;;;;;;;2.88;1.60;;;;;;;;;;5052780;28;20025;-78
2023/02/28 11:14:34;;;;;;;2.72;1.50;;;;;;;;;;5035317;28;20028;-78
2023/02/28 11:17:12;;;;;;;2.67;1.60;;;;;;;;;;5054518;28;20021;-78
2023/02/28 11:19:49;;;;;;;2.53;1.45;;;;;;;;;;5036066;28;20033;-78
2023/02/28 11:22:28;;;;;;;2.97;1.42;;;;;;;;;;5031183;28;20499;-77
2023/02/28 11:24:56;;;;;;;2.80;1.58;;;;;;;;;;5027628;28;20017;-77
2023/02/28 11:27:30;;;;;;;2.10;1.35;;;;;;;;;;5040445;28;20035;-77
2023/02/28 11:29:57;;;;;;;2.67;1.38;;;;;;;;;;5024512;28;20032;-78
2023/02/28 11:32:30;;;;;;;2.55;1.55;;;;;;;;;;5042881;28;20559;-78
2023/02/28 11:35:16;;;;;;;2.55;1.42;;;;;;;;;;5028666;28;20028;-78
2023/02/28 11:37:42;;;;;;;2.47;1.48;;;;;;;;;;5052637;28;20041;-78
2023/02/28 11:40:21;;;;;;;3.30;1.73;;;;;;;;;;5027584;28;20025;-78
2023/02/28 11:43:05;;;;;;;2.72;1.50;;;;;;;;;;5044729;28;20055;-78
2023/02/28 11:45:43;;;;;;;2.25;1.40;;;;;;;;;;5045555;28;20029;-78
2023/02/28 11:48:27;;;;;;;2.50;1.35;;;;;;;;;;5042469;28;20377;-78
2023/02/28 11:51:37;;;;;;;2.50;1.50;;;;;;;;;;5026887;28;20124;-78
2023/02/28 11:54:15;;;;;;;2.50;1.60;;;;;;;;;;4932748;28;20152;-78
2023/02/28 11:56:46;;;;;;;5.97;1.40;;;;;;;;;;5035856;28;20082;-78
2023/02/28 11:59:44;;;;;;;3.47;1.50;;;;;;;;;;5046411;28;20017;-78
2023/02/28 12:02:34;;;;;;;2.60;1.40;;;;;;;;;;5020178;28;20174;-78
2023/02/28 12:05:24;;;;;;;3.63;1.70;;;;;;;;;;5036203;28;20078;-78
2023/02/28 12:08:15;;;;;;;2.90;1.60;;;;;;;;;;5031674;28;20063;-78
2023/02/28 12:11:10;;;;;;;2.00;1.30;;;;;;;;;;5044747;28;20032;-78
2023/02/28 12:14:06;;;;;;;2.95;1.55;;;;;;;;;;5029317;28;20033;-78
2023/02/28 12:17:13;;;;;;;3.60;1.80;;;;;;;;;;5044782;28;20091;-78
2023/02/28 12:20:07;;;;;;;3.63;1.55;;;;;;;;;;5030481;28;20111;-78
2023/02/28 12:22:50;;;;;;;3.33;1.60;;;;;;;;;;5043403;28;20530;-78
2023/02/28 12:25:21;;;;;;;;;;;;;;;;;;5044146;28;20483;-78
2023/02/28 12:27:48;;;;;;;3.83;1.75;;;;;;;;;;5050519;28;19928;-78
2023/02/28 12:30:26;;;;;;;3.35;1.80;;;;;;;;;;5048507;28;20083;-78
2023/02/28 12:33:09;;;;;;;3.42;1.60;;;;;;;;;;5049354;28;20166;-78
2023/02/28 12:35:57;;;;;;;3.20;1.80;;;;;;;;;;5048648;28;20380;-78
2023/02/28 12:38:27;;;;;;;2.90;1.70;;;;;;;;;;5049434;28;20489;-78
2023/02/28 12:41:02;;;;;;;2.50;1.65;;;;;;;;;;5046028;28;20055;-79
2023/02/28 12:43:37;;;;;;;3.30;1.60;;;;;;;;;;5031196;28;20037;-78
2023/02/28 12:46:10;;;;;;;3.83;1.80;;;;;;;;;;5048718;28;20037;-78
2023/02/28 12:48:48;;;;;;;3.15;1.58;;;;;;;;;;5033355;28;20047;-78
2023/02/28 12:51:16;;;;;;;2.90;1.60;;;;;;;;;;5028854;28;20036;-78
2023/02/28 12:53:56;;;;;;;3.53;1.70;;;;;;;;;;5045422;28;20538;-78
2023/02/28 12:56:35;;;;;;;2.78;1.48;;;;;;;;;;5028823;28;20100;-78
2023/02/28 12:59:23;;;;;;;2.50;1.48;;;;;;;;;;5028296;28;20025;-78
2023/02/28 13:02:09;;;;;;;3.13;1.60;;;;;;;;;;5019778;28;20040;-78
2023/02/28 13:04:37;;;;;;;3.28;1.65;;;;;;;;;;5047779;28;20028;-78
2023/02/28 13:07:39;;;;;;;3.38;1.60;;;;;;;;;;5046395;28;20121;-78
2023/02/28 13:10:07;;;;;;;3.00;1.70;;;;;;;;;;5030805;28;20063;-78
2023/02/28 13:12:33;;;;;;;2.58;1.55;;;;;;;;;;5028962;28;20032;-78
2023/02/28 13:15:21;;;;;;;2.53;1.48;;;;;;;;;;5029351;28;20148;-78
2023/02/28 13:17:50;;;;;;;3.60;1.85;;;;;;;;;;5029679;28;20107;-78
2023/02/28 13:20:21;;;;;;;3.80;1.75;;;;;;;;;;5027943;28;20367;-78
2023/02/28 13:22:49;;;;;;;2.65;1.60;;;;;;;;;;5026352;28;20029;-78
2023/02/28 13:25:33;;;;;;;4.03;1.70;;;;;;;;;;5039812;28;20021;-79
2023/02/28 13:28:03;;;;;;;3.20;1.65;;;;;;;;;;5026188;28;20032;-78
2023/02/28 13:30:59;;;;;;;4.65;1.88;;;;;;;;;;5036521;28;20131;-78
2023/02/28 13:33:29;;;;;;;4.72;1.50;;;;;;;;;;5029375;28;20115;-78
2023/02/28 13:36:24;;;;;;;2.60;1.63;;;;;;;;;;5048820;28;20465;-78
2023/02/28 13:38:55;;;;;;;3.75;1.83;;;;;;;;;;5028435;28;20033;-78
2023/02/28 13:41:33;;;;;;;3.20;1.83;;;;;;;;;;5045781;28;20021;-78
2023/02/28 13:44:10;;;;;;;2.47;1.50;;;;;;;;;;5053314;28;20025;-78
2023/02/28 13:46:49;;;;;;;4.75;2.00;;;;;;;;;;5052166;28;20029;-78
2023/02/28 13:49:24;;;;;;;5.30;1.50;;;;;;;;;;5043468;28;20082;-78
2023/02/28 13:52:16;;;;;;;3.38;1.73;;;;;;;;;;5024469;28;20032;-78
2023/02/28 13:54:58;;;;;;;3.20;1.70;;;;;;;;;;5049218;28;20513;-78
2023/02/28 13:58:02;;;;;;;3.47;2.00;;;;;;;;;;5028372;28;20104;-78
2023/02/28 14:00:47;;;;;;;;;;;;;;;;;;4979136;28;20030;-78
2023/02/28 14:03:34;;;;;;;2.80;1.60;;;;;;;;;;4982814;28;20020;-78
2023/02/28 14:06:26;;;;;;;2.75;1.80;;;;;;;;;;5014412;28;20071;-78
2023/02/28 14:09:07;;;;;;;2.90;1.70;;;;;;;;;;5051100;28;20572;-78
2023/02/28 14:11:34;;;;;;;4.03;2.10;;;;;;;;;;5047491;28;20025;-78
2023/02/28 14:14:00;;;;;;;3.60;1.95;;;;;;;;;;5036333;28;20079;-78
2023/02/28 14:16:36;;;;;;;4.20;1.90;;;;;;;;;;5034176;28;20388;-79
2023/02/28 14:19:20;;;;;;;3.45;2.00;;;;;;;;;;5032268;28;20083;-78
2023/02/28 14:21:59;;;;;;;4.65;2.00;;;;;;;;;;5052655;28;20036;-79
2023/02/28 14:24:59;;;;;;;4.05;1.92;;;;;;;;;;5049978;28;20025;-78
2023/02/28 14:27:49;;;;;;;3.80;2.08;;;;;;;;;;5037565;28;20021;-78
2023/02/28 14:30:38;;;;;;;3.50;1.63;;;;;;;;;;5049549;28;20033;-78
2023/02/28 14:33:31;;;;;;;3.38;1.50;;;;;;;;;;5036726;28;20043;-78
2023/02/28 14:36:08;;;;;;;2.60;1.30;;;;;;;;;;5051026;28;20423;-78
2023/02/28 14:38:48;;;;;;;5.28;1.60;;;;;;;;;;5036160;28;20033;-78
2023/02/28 14:41:46;;;;;;;4.45;1.40;;;;;;;;;;5052863;28;20033;-78
2023/02/28 14:44:20;;;;;;;4.15;1.42;;;;;;;;;;5000731;28;20036;-78
2023/02/28 14:46:49;;;;;;;2.33;1.30;;;;;;;;;;5041568;28;20021;-78
2023/02/28 14:49:21;;;;;;;2.90;1.60;;;;;;;;;;5052921;28;20036;-78
2023/02/28 14:51:49;;;;;;;3.75;1.70;;;;;;;;;;5034033;28;20432;-78
2023/02/28 14:54:16;;;;;;;2.47;1.60;;;;;;;;;;5037197;28;20035;-78
2023/02/28 14:56:42;;;;;;;4.35;1.67;;;;;;;;;;5036258;28;20026;-78
2023/02/28 14:59:29;;;;;;;3.85;1.90;;;;;;;;;;5054068;28;20104;-78
2023/02/28 15:02:21;;;;;;;3.10;1.60;;;;;;;;;;5033846;28;20036;-78
2023/02/28 15:04:54;;;;;;;3.25;1.83;;;;;;;;;;5050502;28;20020;-78
2023/02/28 15:07:28;;;;;;;3.78;1.85;;;;;;;;;;5031034;28;20057;-78
2023/02/28 15:10:16;;;;;;;3.03;1.75;;;;;;;;;;5035776;28;20411;-78
2023/02/28 15:12:46;;;;;;;4.95;1.90;;;;;;;;;;5024989;28;20028;-78
2023/02/28 15:15:16;;;;;;;3.35;1.70;;;;;;;;;;5034937;28;20017;-78